sensor_id;sensor_type;location;lat;lon;timestamp;pressure;altitude;pressure_sealevel;temperature;humidity
62508;BME280;48556;51.972;4.624;2023-01-27T00:00:31;102580.66;;;8.53;78.11
62508;BME280;48556;51.972;4.624;2023-01-27T00:02:59;102584.78;;;8.80;77.21
62508;BME280;48556;51.972;4.624;2023-01-27T00:05:24;102582.78;;;8.34;78.65
62508;BME280;48556;51.972;4.624;2023-01-27T00:07:51;102580.09;;;8.33;77.34
62508;BME280;48556;51.972;4.624;2023-01-27T00:10:18;102582.44;;;8.54;76.87
62508;BME280;48556;51.972;4.624;2023-01-27T00:12:57;102584.69;;;8.40;77.25
62508;BME280;48556;51.972;4.624;2023-01-27T00:15:41;102567.50;;;8.51;77.10
62508;BME280;48556;51.972;4.624;2023-01-27T00:18:06;102583.59;;;8.67;77.13
62508;BME280;48556;51.972;4.624;2023-01-27T00:20:32;102582.94;;;8.41;78.35
62508;BME280;48556;51.972;4.624;2023-01-27T00:23:17;102582.56;;;8.98;76.72
62508;BME280;48556;51.972;4.624;2023-01-27T00:26:04;102587.75;;;8.95;75.73
62508;BME280;48556;51.972;4.624;2023-01-27T00:28:34;102573.16;;;8.68;76.99
62508;BME280;48556;51.972;4.624;2023-01-27T00:31:01;102571.56;;;8.75;76.04
62508;BME280;48556;51.972;4.624;2023-01-27T00:33:28;102573.25;;;8.38;77.63
62508;BME280;48556;51.972;4.624;2023-01-27T00:35:58;102566.06;;;8.29;78.25
62508;BME280;48556;51.972;4.624;2023-01-27T00:38:29;102570.13;;;8.18;78.43
62508;BME280;48556;51.972;4.624;2023-01-27T00:40:55;102571.22;;;8.26;78.69
62508;BME280;48556;51.972;4.624;2023-01-27T00:43:41;102571.28;;;8.29;78.44
62508;BME280;48556;51.972;4.624;2023-01-27T00:46:12;102574.09;;;8.37;77.97
62508;BME280;48556;51.972;4.624;2023-01-27T00:48:38;102570.53;;;8.33;78.53
62508;BME280;48556;51.972;4.624;2023-01-27T00:51:03;102567.53;;;8.18;79.40
62508;BME280;48556;51.972;4.624;2023-01-27T00:53:45;102574.19;;;8.40;78.37
62508;BME280;48556;51.972;4.624;2023-01-27T00:56:12;102577.31;;;8.25;79.21
62508;BME280;48556;51.972;4.624;2023-01-27T00:58:37;102576.34;;;8.57;79.06
62508;BME280;48556;51.972;4.624;2023-01-27T01:01:07;102575.41;;;8.53;77.97
62508;BME280;48556;51.972;4.624;2023-01-27T01:03:41;102576.34;;;8.57;77.73
62508;BME280;48556;51.972;4.624;2023-01-27T01:06:12;102583.50;;;8.29;78.19
62508;BME280;48556;51.972;4.624;2023-01-27T01:08:42;102588.22;;;8.42;78.48
62508;BME280;48556;51.972;4.624;2023-01-27T01:11:17;102589.72;;;7.99;79.23
62508;BME280;48556;51.972;4.624;2023-01-27T01:13:44;102596.78;;;8.01;79.98
62508;BME280;48556;51.972;4.624;2023-01-27T01:16:27;102587.56;;;7.84;80.08
62508;BME280;48556;51.972;4.624;2023-01-27T01:18:53;102580.81;;;7.92;80.38
62508;BME280;48556;51.972;4.624;2023-01-27T01:21:18;102585.97;;;7.89;79.96
62508;BME280;48556;51.972;4.624;2023-01-27T01:23:45;102595.66;;;7.92;80.00
62508;BME280;48556;51.972;4.624;2023-01-27T01:26:12;102595.56;;;7.89;79.56
62508;BME280;48556;51.972;4.624;2023-01-27T01:28:38;102593.47;;;8.09;78.92
62508;BME280;48556;51.972;4.624;2023-01-27T01:31:11;102589.44;;;8.21;78.34
62508;BME280;48556;51.972;4.624;2023-01-27T01:33:37;102592.91;;;7.87;79.52
62508;BME280;48556;51.972;4.624;2023-01-27T01:36:09;102595.06;;;8.03;78.61
62508;BME280;48556;51.972;4.624;2023-01-27T01:38:36;102603.63;;;7.96;78.28
62508;BME280;48556;51.972;4.624;2023-01-27T01:41:15;102587.47;;;7.81;78.67
62508;BME280;48556;51.972;4.624;2023-01-27T01:43:41;102590.09;;;8.13;77.55
62508;BME280;48556;51.972;4.624;2023-01-27T01:46:16;102596.66;;;7.65;78.25
62508;BME280;48556;51.972;4.624;2023-01-27T01:48:57;102602.81;;;7.67;78.82
62508;BME280;48556;51.972;4.624;2023-01-27T01:59:50;102616.16;;;7.46;79.47
62508;BME280;48556;51.972;4.624;2023-01-27T02:02:23;102613.00;;;7.27;79.66
62508;BME280;48556;51.972;4.624;2023-01-27T02:05:09;102604.09;;;7.21;79.93
62508;BME280;48556;51.972;4.624;2023-01-27T02:07:54;102607.09;;;7.06;81.08
62508;BME280;48556;51.972;4.624;2023-01-27T02:10:22;102609.44;;;7.25;80.71
62508;BME280;48556;51.972;4.624;2023-01-27T02:12:52;102603.84;;;7.13;79.70
62508;BME280;48556;51.972;4.624;2023-01-27T02:15:24;102609.19;;;7.16;79.26
62508;BME280;48556;51.972;4.624;2023-01-27T02:17:50;102614.56;;;7.21;79.11
62508;BME280;48556;51.972;4.624;2023-01-27T02:20:30;102612.09;;;7.27;78.28
62508;BME280;48556;51.972;4.624;2023-01-27T02:23:26;102613.59;;;7.47;77.76
62508;BME280;48556;51.972;4.624;2023-01-27T02:28:39;102615.88;;;7.36;78.29
62508;BME280;48556;51.972;4.624;2023-01-27T02:31:16;102608.75;;;7.02;79.67
62508;BME280;48556;51.972;4.624;2023-01-27T02:34:05;102617.03;;;7.16;79.83
62508;BME280;48556;51.972;4.624;2023-01-27T02:36:53;102619.09;;;7.26;79.52
62508;BME280;48556;51.972;4.624;2023-01-27T02:39:38;102612.78;;;7.19;80.02
62508;BME280;48556;51.972;4.624;2023-01-27T02:42:09;102606.75;;;7.22;80.34
62508;BME280;48556;51.972;4.624;2023-01-27T02:44:36;102624.16;;;7.50;79.12
62508;BME280;48556;51.972;4.624;2023-01-27T02:47:02;102625.41;;;7.06;80.31
62508;BME280;48556;51.972;4.624;2023-01-27T02:49:27;102614.34;;;7.43;79.64
62508;BME280;48556;51.972;4.624;2023-01-27T02:51:53;102622.44;;;7.51;78.77
62508;BME280;48556;51.972;4.624;2023-01-27T02:54:24;102617.88;;;7.44;78.18
62508;BME280;48556;51.972;4.624;2023-01-27T02:56:50;102624.03;;;7.46;78.66
62508;BME280;48556;51.972;4.624;2023-01-27T02:59:16;102622.63;;;7.28;79.04
62508;BME280;48556;51.972;4.624;2023-01-27T03:01:41;102621.34;;;7.15;79.47
62508;BME280;48556;51.972;4.624;2023-01-27T03:04:07;102632.06;;;7.23;78.64
62508;BME280;48556;51.972;4.624;2023-01-27T03:06:36;102624.97;;;7.19;79.10
62508;BME280;48556;51.972;4.624;2023-01-27T03:09:03;102633.44;;;7.10;79.05
62508;BME280;48556;51.972;4.624;2023-01-27T03:11:30;102634.78;;;6.99;79.91
62508;BME280;48556;51.972;4.624;2023-01-27T03:14:13;102623.72;;;7.06;78.81
62508;BME280;48556;51.972;4.624;2023-01-27T03:16:39;102627.47;;;6.87;79.21
62508;BME280;48556;51.972;4.624;2023-01-27T03:19:27;102628.28;;;6.86;78.82
62508;BME280;48556;51.972;4.624;2023-01-27T03:21:53;102633.00;;;6.96;79.28
62508;BME280;48556;51.972;4.624;2023-01-27T03:24:24;102636.78;;;6.79;80.32
62508;BME280;48556;51.972;4.624;2023-01-27T03:26:52;102639.81;;;6.91;79.31
62508;BME280;48556;51.972;4.624;2023-01-27T03:29:17;102641.53;;;6.91;79.49
62508;BME280;48556;51.972;4.624;2023-01-27T03:32:05;102651.78;;;6.84;80.34
62508;BME280;48556;51.972;4.624;2023-01-27T03:34:30;102646.22;;;7.01;79.61
62508;BME280;48556;51.972;4.624;2023-01-27T03:36:56;102657.28;;;7.21;78.87
62508;BME280;48556;51.972;4.624;2023-01-27T03:39:40;102652.88;;;6.91;79.65
62508;BME280;48556;51.972;4.624;2023-01-27T03:42:25;102650.94;;;6.86;79.68
62508;BME280;48556;51.972;4.624;2023-01-27T03:45:09;102651.41;;;6.99;79.45
62508;BME280;48556;51.972;4.624;2023-01-27T03:47:53;102658.41;;;7.00;79.64
62508;BME280;48556;51.972;4.624;2023-01-27T03:50:19;102663.44;;;6.94;79.84
62508;BME280;48556;51.972;4.624;2023-01-27T03:53:02;102661.78;;;6.96;79.88
62508;BME280;48556;51.972;4.624;2023-01-27T03:55:31;102657.75;;;7.08;79.29
62508;BME280;48556;51.972;4.624;2023-01-27T03:58:02;102661.84;;;6.99;79.47
62508;BME280;48556;51.972;4.624;2023-01-27T04:00:58;102666.56;;;6.82;79.25
62508;BME280;48556;51.972;4.624;2023-01-27T04:03:29;102669.50;;;6.93;78.63
62508;BME280;48556;51.972;4.624;2023-01-27T04:06:21;102674.53;;;6.61;80.00
62508;BME280;48556;51.972;4.624;2023-01-27T04:09:38;102674.81;;;6.69;79.86
62508;BME280;48556;51.972;4.624;2023-01-27T04:12:06;102681.66;;;6.91;78.08
62508;BME280;48556;51.972;4.624;2023-01-27T04:14:38;102689.06;;;6.79;79.30
62508;BME280;48556;51.972;4.624;2023-01-27T04:17:13;102690.03;;;6.55;79.97
62508;BME280;48556;51.972;4.624;2023-01-27T04:19:39;102705.69;;;6.55;79.89
62508;BME280;48556;51.972;4.624;2023-01-27T04:22:05;102699.53;;;6.79;79.35
62508;BME280;48556;51.972;4.624;2023-01-27T04:24:33;102705.88;;;6.86;78.89
62508;BME280;48556;51.972;4.624;2023-01-27T04:27:02;102706.75;;;6.86;78.55
62508;BME280;48556;51.972;4.624;2023-01-27T04:29:32;102700.53;;;7.10;78.06
62508;BME280;48556;51.972;4.624;2023-01-27T04:32:02;102709.53;;;6.91;78.32
62508;BME280;48556;51.972;4.624;2023-01-27T04:34:28;102711.91;;;7.10;77.96
62508;BME280;48556;51.972;4.624;2023-01-27T04:36:55;102710.09;;;7.36;76.79
62508;BME280;48556;51.972;4.624;2023-01-27T04:39:23;102721.69;;;7.16;76.76
62508;BME280;48556;51.972;4.624;2023-01-27T04:41:51;102711.91;;;7.10;76.85
62508;BME280;48556;51.972;4.624;2023-01-27T04:44:20;102712.97;;;6.90;77.13
62508;BME280;48556;51.972;4.624;2023-01-27T04:46:47;102709.13;;;7.06;77.13
62508;BME280;48556;51.972;4.624;2023-01-27T04:49:14;102723.03;;;7.05;77.40
62508;BME280;48556;51.972;4.624;2023-01-27T04:51:39;102712.38;;;6.98;76.82
62508;BME280;48556;51.972;4.624;2023-01-27T04:54:05;102720.88;;;6.91;76.89
62508;BME280;48556;51.972;4.624;2023-01-27T04:57:13;102726.25;;;6.96;76.59
62508;BME280;48556;51.972;4.624;2023-01-27T04:59:19;102720.88;;;6.91;76.34
62508;BME280;48556;51.972;4.624;2023-01-27T05:01:45;102725.38;;;6.95;76.11
62508;BME280;48556;51.972;4.624;2023-01-27T05:04:10;102725.31;;;6.94;75.68
62508;BME280;48556;51.972;4.624;2023-01-27T05:06:36;102722.53;;;6.89;74.82
62508;BME280;48556;51.972;4.624;2023-01-27T05:09:06;102724.53;;;6.96;74.37
62508;BME280;48556;51.972;4.624;2023-01-27T05:11:33;102726.47;;;6.76;74.12
62508;BME280;48556;51.972;4.624;2023-01-27T05:14:00;102728.19;;;6.76;74.61
62508;BME280;48556;51.972;4.624;2023-01-27T05:16:28;102720.88;;;6.91;73.72
62508;BME280;48556;51.972;4.624;2023-01-27T05:18:53;102723.81;;;7.00;72.97
62508;BME280;48556;51.972;4.624;2023-01-27T05:21:23;102722.00;;;6.99;73.41
62508;BME280;48556;51.972;4.624;2023-01-27T05:23:49;102732.69;;;6.80;73.97
62508;BME280;48556;51.972;4.624;2023-01-27T05:26:19;102723.69;;;6.97;74.02
62508;BME280;48556;51.972;4.624;2023-01-27T05:28:47;102732.63;;;7.04;73.31
62508;BME280;48556;51.972;4.624;2023-01-27T05:31:16;102740.00;;;7.16;72.67
62508;BME280;48556;51.972;4.624;2023-01-27T05:33:48;102725.22;;;7.74;70.69
62508;BME280;48556;51.972;4.624;2023-01-27T05:36:17;102725.22;;;7.18;70.71
62508;BME280;48556;51.972;4.624;2023-01-27T05:38:45;102736.75;;;6.97;72.23
62508;BME280;48556;51.972;4.624;2023-01-27T05:41:16;102744.56;;;6.96;73.45
62508;BME280;48556;51.972;4.624;2023-01-27T05:43:44;102742.00;;;7.25;72.37
62508;BME280;48556;51.972;4.624;2023-01-27T05:46:24;102750.38;;;7.14;72.77
62508;BME280;48556;51.972;4.624;2023-01-27T05:49:00;102752.66;;;6.78;73.73
62508;BME280;48556;51.972;4.624;2023-01-27T05:51:35;102752.25;;;6.91;73.12
62508;BME280;48556;51.972;4.624;2023-01-27T05:54:02;102751.44;;;7.19;71.64
62508;BME280;48556;51.972;4.624;2023-01-27T05:56:33;102740.91;;;7.18;71.30
62508;BME280;48556;51.972;4.624;2023-01-27T05:59:03;102751.66;;;7.00;72.31
62508;BME280;48556;51.972;4.624;2023-01-27T06:01:33;102751.38;;;7.18;71.07
62508;BME280;48556;51.972;4.624;2023-01-27T06:04:00;102745.84;;;7.36;70.64
62508;BME280;48556;51.972;4.624;2023-01-27T06:06:31;102745.50;;;7.25;70.78
62508;BME280;48556;51.972;4.624;2023-01-27T06:09:00;102755.06;;;7.23;70.65
62508;BME280;48556;51.972;4.624;2023-01-27T06:11:26;102752.84;;;7.35;70.20
62508;BME280;48556;51.972;4.624;2023-01-27T06:13:53;102746.78;;;7.38;69.97
62508;BME280;48556;51.972;4.624;2023-01-27T06:16:20;102755.94;;;7.51;69.59
62508;BME280;48556;51.972;4.624;2023-01-27T06:18:47;102755.63;;;7.42;69.15
62508;BME280;48556;51.972;4.624;2023-01-27T06:21:15;102752.47;;;7.52;68.17
62508;BME280;48556;51.972;4.624;2023-01-27T06:23:41;102757.81;;;7.28;68.70
62508;BME280;48556;51.972;4.624;2023-01-27T06:26:09;102754.59;;;7.36;69.34
62508;BME280;48556;51.972;4.624;2023-01-27T06:28:38;102764.47;;;7.18;69.66
62508;BME280;48556;51.972;4.624;2023-01-27T06:31:12;102762.41;;;7.08;69.31
62508;BME280;48556;51.972;4.624;2023-01-27T06:33:39;102759.13;;;7.15;70.10
62508;BME280;48556;51.972;4.624;2023-01-27T06:36:08;102759.00;;;7.38;68.68
62508;BME280;48556;51.972;4.624;2023-01-27T06:38:34;102756.59;;;7.44;68.50
62508;BME280;48556;51.972;4.624;2023-01-27T06:41:00;102769.47;;;7.38;68.17
62508;BME280;48556;51.972;4.624;2023-01-27T06:43:26;102772.88;;;7.35;67.74
62508;BME280;48556;51.972;4.624;2023-01-27T06:45:53;102774.91;;;7.44;67.90
62508;BME280;48556;51.972;4.624;2023-01-27T06:48:19;102773.66;;;7.32;67.79
62508;BME280;48556;51.972;4.624;2023-01-27T06:50:44;102785.38;;;7.44;67.95
62508;BME280;48556;51.972;4.624;2023-01-27T06:53:10;102790.50;;;7.41;67.88
62508;BME280;48556;51.972;4.624;2023-01-27T06:55:37;102781.91;;;7.45;68.27
62508;BME280;48556;51.972;4.624;2023-01-27T06:58:07;102784.03;;;7.29;66.69
62508;BME280;48556;51.972;4.624;2023-01-27T07:00:54;102792.09;;;7.35;67.19
62508;BME280;48556;51.972;4.624;2023-01-27T07:03:20;102795.72;;;7.13;66.49
62508;BME280;48556;51.972;4.624;2023-01-27T07:05:45;102790.94;;;7.01;66.76
62508;BME280;48556;51.972;4.624;2023-01-27T07:08:11;102786.97;;;7.13;65.11
62508;BME280;48556;51.972;4.624;2023-01-27T07:10:37;102801.38;;;7.26;65.06
62508;BME280;48556;51.972;4.624;2023-01-27T07:13:11;102802.88;;;7.19;65.07
62508;BME280;48556;51.972;4.624;2023-01-27T07:15:38;102797.13;;;7.04;66.61
62508;BME280;48556;51.972;4.624;2023-01-27T07:18:05;102799.91;;;7.08;66.12
62508;BME280;48556;51.972;4.624;2023-01-27T07:20:32;102805.31;;;7.14;64.90
62508;BME280;48556;51.972;4.624;2023-01-27T07:22:59;102796.19;;;7.01;65.97
62508;BME280;48556;51.972;4.624;2023-01-27T07:25:26;102806.78;;;7.32;64.33
62508;BME280;48556;51.972;4.624;2023-01-27T07:27:56;102795.16;;;6.96;66.23
62508;BME280;48556;51.972;4.624;2023-01-27T07:30:22;102792.41;;;6.67;67.32
62508;BME280;48556;51.972;4.624;2023-01-27T07:32:48;102798.47;;;7.18;65.85
62508;BME280;48556;51.972;4.624;2023-01-27T07:35:15;102790.22;;;7.31;65.43
62508;BME280;48556;51.972;4.624;2023-01-27T07:37:43;102796.13;;;7.26;65.96
62508;BME280;48556;51.972;4.624;2023-01-27T07:40:13;102795.06;;;6.95;66.10
62508;BME280;48556;51.972;4.624;2023-01-27T07:42:49;102805.13;;;6.82;67.03
62508;BME280;48556;51.972;4.624;2023-01-27T07:46:19;102815.22;;;6.97;66.21
62508;BME280;48556;51.972;4.624;2023-01-27T07:48:45;102825.94;;;6.55;67.15
62508;BME280;48556;51.972;4.624;2023-01-27T07:51:13;102822.22;;;6.73;66.78
62508;BME280;48556;51.972;4.624;2023-01-27T07:53:48;102820.34;;;6.46;67.38
62508;BME280;48556;51.972;4.624;2023-01-27T07:56:14;102830.09;;;6.50;67.20
62508;BME280;48556;51.972;4.624;2023-01-27T07:58:47;102831.78;;;6.48;66.85
62508;BME280;48556;51.972;4.624;2023-01-27T08:01:23;102836.94;;;6.71;66.51
62508;BME280;48556;51.972;4.624;2023-01-27T08:03:48;102846.19;;;6.61;65.90
62508;BME280;48556;51.972;4.624;2023-01-27T08:06:16;102844.94;;;6.51;66.44
62508;BME280;48556;51.972;4.624;2023-01-27T08:08:43;102839.41;;;6.66;66.42
62508;BME280;48556;51.972;4.624;2023-01-27T08:11:18;102838.31;;;6.85;64.89
62508;BME280;48556;51.972;4.624;2023-01-27T08:13:43;102846.06;;;7.06;65.21
62508;BME280;48556;51.972;4.624;2023-01-27T08:16:14;102856.81;;;7.15;64.83
62508;BME280;48556;51.972;4.624;2023-01-27T08:18:40;102850.81;;;7.18;64.29
62508;BME280;48556;51.972;4.624;2023-01-27T08:21:08;102851.38;;;7.35;63.59
62508;BME280;48556;51.972;4.624;2023-01-27T08:23:34;102850.59;;;7.12;64.09
62508;BME280;48556;51.972;4.624;2023-01-27T08:26:01;102854.88;;;6.84;66.06
62508;BME280;48556;51.972;4.624;2023-01-27T08:28:30;102853.19;;;6.62;67.13
62508;BME280;48556;51.972;4.624;2023-01-27T08:31:12;102862.47;;;6.78;66.59
62508;BME280;48556;51.972;4.624;2023-01-27T08:33:40;102854.16;;;7.14;65.51
62508;BME280;48556;51.972;4.624;2023-01-27T08:36:11;102861.31;;;7.19;65.20
62508;BME280;48556;51.972;4.624;2023-01-27T08:38:44;102853.09;;;6.59;67.58
62508;BME280;48556;51.972;4.624;2023-01-27T08:41:13;102854.41;;;6.72;67.24
62508;BME280;48556;51.972;4.624;2023-01-27T08:43:39;102865.16;;;7.04;65.64
62508;BME280;48556;51.972;4.624;2023-01-27T08:46:06;102865.44;;;7.13;65.63
62508;BME280;48556;51.972;4.624;2023-01-27T08:48:45;102862.75;;;6.61;67.76
62508;BME280;48556;51.972;4.624;2023-01-27T08:51:17;102869.28;;;6.50;67.80
62508;BME280;48556;51.972;4.624;2023-01-27T08:53:46;102869.88;;;6.90;66.32
62508;BME280;48556;51.972;4.624;2023-01-27T08:56:15;102859.06;;;7.30;64.21
62508;BME280;48556;51.972;4.624;2023-01-27T08:58:53;102875.19;;;7.17;64.88
62508;BME280;48556;51.972;4.624;2023-01-27T09:01:20;102869.50;;;7.05;64.10
62508;BME280;48556;51.972;4.624;2023-01-27T09:03:47;102875.75;;;6.60;65.39
62508;BME280;48556;51.972;4.624;2023-01-27T09:06:14;102873.22;;;7.35;62.93
62508;BME280;48556;51.972;4.624;2023-01-27T09:08:40;102869.97;;;7.70;61.35
62508;BME280;48556;51.972;4.624;2023-01-27T09:11:16;102866.69;;;6.98;63.84
62508;BME280;48556;51.972;4.624;2023-01-27T09:13:42;102869.47;;;7.03;64.70
62508;BME280;48556;51.972;4.624;2023-01-27T09:16:08;102863.47;;;7.31;63.72
62508;BME280;48556;51.972;4.624;2023-01-27T09:18:34;102871.13;;;7.51;63.20
62508;BME280;48556;51.972;4.624;2023-01-27T09:21:05;102871.81;;;7.45;62.61
62508;BME280;48556;51.972;4.624;2023-01-27T09:23:33;102870.00;;;7.18;62.70
62508;BME280;48556;51.972;4.624;2023-01-27T09:25:59;102872.50;;;7.15;63.75
62508;BME280;48556;51.972;4.624;2023-01-27T09:28:29;102874.00;;;6.83;64.74
62508;BME280;48556;51.972;4.624;2023-01-27T09:31:02;102877.28;;;7.27;63.95
62508;BME280;48556;51.972;4.624;2023-01-27T09:33:27;102879.50;;;7.15;63.52
62508;BME280;48556;51.972;4.624;2023-01-27T09:36:03;102878.31;;;7.07;64.29
62508;BME280;48556;51.972;4.624;2023-01-27T09:38:35;102871.75;;;6.70;66.01
62508;BME280;48556;51.972;4.624;2023-01-27T09:43:54;102875.59;;;6.55;67.02
62508;BME280;48556;51.972;4.624;2023-01-27T09:58:23;102869.28;;;6.73;66.86
62508;BME280;48556;51.972;4.624;2023-01-27T10:04:12;102867.38;;;6.69;67.45
62508;BME280;48556;51.972;4.624;2023-01-27T10:12:33;102870.91;;;7.19;65.52
62508;BME280;48556;51.972;4.624;2023-01-27T10:26:01;102891.41;;;6.36;68.35
62508;BME280;48556;51.972;4.624;2023-01-27T10:28:36;102879.59;;;6.70;67.47
62508;BME280;48556;51.972;4.624;2023-01-27T10:31:19;102882.56;;;6.79;67.68
62508;BME280;48556;51.972;4.624;2023-01-27T10:33:53;102880.97;;;6.82;67.20
62508;BME280;48556;51.972;4.624;2023-01-27T10:36:36;102887.38;;;6.91;67.07
62508;BME280;48556;51.972;4.624;2023-01-27T10:39:25;102878.75;;;6.95;66.74
62508;BME280;48556;51.972;4.624;2023-01-27T10:50:42;102876.03;;;6.92;67.29
62508;BME280;48556;51.972;4.624;2023-01-27T10:53:24;102870.75;;;6.90;67.20
62508;BME280;48556;51.972;4.624;2023-01-27T10:56:43;102875.59;;;6.79;67.36
62508;BME280;48556;51.972;4.624;2023-01-27T11:01:52;102870.13;;;6.97;66.86
62508;BME280;48556;51.972;4.624;2023-01-27T11:04:45;102871.41;;;7.09;67.30
62508;BME280;48556;51.972;4.624;2023-01-27T11:07:16;102875.47;;;7.78;65.45
62508;BME280;48556;51.972;4.624;2023-01-27T11:10:06;102872.59;;;7.97;65.20
62508;BME280;48556;51.972;4.624;2023-01-27T11:12:43;102874.00;;;8.15;64.14
62508;BME280;48556;51.972;4.624;2023-01-27T11:15:21;102868.34;;;8.01;64.08
62508;BME280;48556;51.972;4.624;2023-01-27T11:17:56;102853.97;;;8.17;63.42
62508;BME280;48556;51.972;4.624;2023-01-27T11:20:34;102865.47;;;7.93;63.43
62508;BME280;48556;51.972;4.624;2023-01-27T11:23:11;102866.03;;;7.83;63.58
62508;BME280;48556;51.972;4.624;2023-01-27T11:31:39;102869.16;;;7.98;62.65
62508;BME280;48556;51.972;4.624;2023-01-27T11:36:41;102866.13;;;7.86;63.02
62508;BME280;48556;51.972;4.624;2023-01-27T11:39:09;102860.97;;;7.89;63.62
62508;BME280;48556;51.972;4.624;2023-01-27T11:41:54;102854.63;;;7.81;64.35
62508;BME280;48556;51.972;4.624;2023-01-27T11:44:34;102857.19;;;8.07;63.79
62508;BME280;48556;51.972;4.624;2023-01-27T11:47:05;102853.44;;;8.29;62.77
62508;BME280;48556;51.972;4.624;2023-01-27T11:49:40;102846.84;;;7.84;65.69
62508;BME280;48556;51.972;4.624;2023-01-27T11:52:14;102851.50;;;8.50;62.78
62508;BME280;48556;51.972;4.624;2023-01-27T11:54:46;102854.31;;;7.72;64.54
62508;BME280;48556;51.972;4.624;2023-01-27T11:57:22;102844.34;;;7.87;65.03
62508;BME280;48556;51.972;4.624;2023-01-27T12:00:15;102848.97;;;7.96;64.93
62508;BME280;48556;51.972;4.624;2023-01-27T12:06:01;102840.28;;;7.97;64.39
62508;BME280;48556;51.972;4.624;2023-01-27T12:08:40;102838.81;;;7.78;65.33
62508;BME280;48556;51.972;4.624;2023-01-27T12:11:28;102832.47;;;7.98;64.94
62508;BME280;48556;51.972;4.624;2023-01-27T12:14:15;102831.28;;;7.89;64.19
62508;BME280;48556;51.972;4.624;2023-01-27T12:16:51;102829.91;;;7.73;65.33
62508;BME280;48556;51.972;4.624;2023-01-27T12:21:59;102827.53;;;7.53;67.10
62508;BME280;48556;51.972;4.624;2023-01-27T12:24:33;102825.81;;;7.53;67.57
62508;BME280;48556;51.972;4.624;2023-01-27T12:27:03;102825.28;;;7.64;66.88
62508;BME280;48556;51.972;4.624;2023-01-27T12:29:49;102841.38;;;7.49;67.88
62508;BME280;48556;51.972;4.624;2023-01-27T12:32:22;102837.41;;;7.34;68.73
62508;BME280;48556;51.972;4.624;2023-01-27T12:34:59;102828.09;;;7.17;69.58
62508;BME280;48556;51.972;4.624;2023-01-27T12:37:37;102830.59;;;7.94;67.79
62508;BME280;48556;51.972;4.624;2023-01-27T12:40:07;102822.78;;;7.96;68.08
62508;BME280;48556;51.972;4.624;2023-01-27T12:42:48;102824.59;;;7.98;67.85
62508;BME280;48556;51.972;4.624;2023-01-27T12:48:18;102818.19;;;7.61;69.51
62508;BME280;48556;51.972;4.624;2023-01-27T12:50:55;102821.41;;;7.80;67.46
62508;BME280;48556;51.972;4.624;2023-01-27T12:53:26;102818.50;;;7.99;67.58
62508;BME280;48556;51.972;4.624;2023-01-27T12:56:18;102822.06;;;8.01;67.59
62508;BME280;48556;51.972;4.624;2023-01-27T12:59:12;102817.22;;;8.14;66.96
62508;BME280;48556;51.972;4.624;2023-01-27T13:01:39;102819.66;;;8.09;67.02
62508;BME280;48556;51.972;4.624;2023-01-27T13:04:18;102812.00;;;7.86;66.92
62508;BME280;48556;51.972;4.624;2023-01-27T13:11:57;102811.25;;;7.34;69.83
62508;BME280;48556;51.972;4.624;2023-01-27T13:14:40;102818.06;;;7.57;68.64
62508;BME280;48556;51.972;4.624;2023-01-27T13:23:41;102818.78;;;7.80;67.65
62508;BME280;48556;51.972;4.624;2023-01-27T13:31:42;102824.69;;;8.30;64.03
62508;BME280;48556;51.972;4.624;2023-01-27T13:37:45;102819.03;;;7.87;64.22
62508;BME280;48556;51.972;4.624;2023-01-27T13:40:36;102819.75;;;8.11;63.22
62508;BME280;48556;51.972;4.624;2023-01-27T13:43:40;102818.25;;;7.90;64.42
62508;BME280;48556;51.972;4.624;2023-01-27T13:46:38;102816.16;;;8.37;62.38
62508;BME280;48556;51.972;4.624;2023-01-27T13:49:36;102823.94;;;8.06;63.48
62508;BME280;48556;51.972;4.624;2023-01-27T13:52:26;102813.63;;;8.41;62.77
62508;BME280;48556;51.972;4.624;2023-01-27T13:55:12;102826.75;;;7.83;64.22
62508;BME280;48556;51.972;4.624;2023-01-27T13:58:03;102823.00;;;7.75;65.31
62508;BME280;48556;51.972;4.624;2023-01-27T14:00:46;102826.19;;;7.93;65.13
62508;BME280;48556;51.972;4.624;2023-01-27T14:06:42;102824.88;;;7.79;67.77
62508;BME280;48556;51.972;4.624;2023-01-27T14:09:54;102818.50;;;7.70;67.65
62508;BME280;48556;51.972;4.624;2023-01-27T14:15:30;102815.69;;;7.64;67.17
62508;BME280;48556;51.972;4.624;2023-01-27T14:18:23;102822.47;;;7.86;66.77
62508;BME280;48556;51.972;4.624;2023-01-27T14:23:52;102826.31;;;7.42;69.28
62508;BME280;48556;51.972;4.624;2023-01-27T14:32:41;102844.47;;;7.64;66.45
62508;BME280;48556;51.972;4.624;2023-01-27T14:35:30;102845.22;;;7.60;66.51
62508;BME280;48556;51.972;4.624;2023-01-27T14:38:15;102848.38;;;7.50;68.08
62508;BME280;48556;51.972;4.624;2023-01-27T14:43:43;102843.06;;;7.47;68.64
62508;BME280;48556;51.972;4.624;2023-01-27T14:46:37;102851.13;;;7.27;69.27
62508;BME280;48556;51.972;4.624;2023-01-27T14:52:22;102854.81;;;7.87;68.08
62508;BME280;48556;51.972;4.624;2023-01-27T15:01:32;102871.84;;;7.74;67.43
62508;BME280;48556;51.972;4.624;2023-01-27T15:10:38;102870.06;;;7.46;67.34
62508;BME280;48556;51.972;4.624;2023-01-27T15:20:59;102866.50;;;7.18;68.38
62508;BME280;48556;51.972;4.624;2023-01-27T15:26:43;102890.94;;;7.44;67.32
62508;BME280;48556;51.972;4.624;2023-01-27T15:29:24;102874.94;;;7.09;68.80
62508;BME280;48556;51.972;4.624;2023-01-27T15:38:20;102892.03;;;6.99;69.88
62508;BME280;48556;51.972;4.624;2023-01-27T15:41:06;102895.31;;;7.44;68.50
62508;BME280;48556;51.972;4.624;2023-01-27T15:43:42;102894.41;;;7.43;68.62
62508;BME280;48556;51.972;4.624;2023-01-27T15:46:32;102884.06;;;7.48;68.66
62508;BME280;48556;51.972;4.624;2023-01-27T15:49:02;102895.56;;;7.26;69.15
62508;BME280;48556;51.972;4.624;2023-01-27T15:51:38;102881.22;;;7.40;68.81
62508;BME280;48556;51.972;4.624;2023-01-27T15:54:18;102888.47;;;7.75;67.73
62508;BME280;48556;51.972;4.624;2023-01-27T15:56:52;102888.03;;;7.61;67.75
62508;BME280;48556;51.972;4.624;2023-01-27T15:59:28;102881.47;;;7.48;68.48